sensor_id;sensor_type;location;lat;lon;timestamp;pressure;altitude;pressure_sealevel;temperature;humidity
11515;BME280;5814;41.936;25.556;2023-03-01T00:02:24;112497.60;;;-145.99;100.00
11515;BME280;5814;41.936;25.556;2023-03-01T00:04:51;112497.60;;;-145.99;100.00
11515;BME280;5814;41.936;25.556;2023-03-01T00:07:18;112497.60;;;-145.99;100.00
11515;BME280;5814;41.936;25.556;2023-03-01T00:09:45;112497.60;;;-145.99;100.00
11515;BME280;5814;41.936;25.556;2023-03-01T00:12:13;112497.60;;;-145.99;100.00
11515;BME280;5814;41.936;25.556;2023-03-01T00:14:40;112497.60;;;-145.99;100.00
11515;BME280;5814;41.936;25.556;2023-03-01T00:17:07;112497.60;;;-145.99;100.00
11515;BME280;5814;41.936;25.556;2023-03-01T00:19:34;112497.60;;;-145.99;100.00
11515;BME280;5814;41.936;25.556;2023-03-01T00:22:01;112497.60;;;-145.99;100.00
11515;BME280;5814;41.936;25.556;2023-03-01T00:24:29;112497.60;;;-145.99;100.00
11515;BME280;5814;41.936;25.556;2023-03-01T00:26:56;112497.60;;;-145.99;100.00
11515;BME280;5814;41.936;25.556;2023-03-01T00:29:24;112497.60;;;-145.99;100.00
11515;BME280;5814;41.936;25.556;2023-03-01T00:31:51;112497.60;;;-145.99;100.00
11515;BME280;5814;41.936;25.556;2023-03-01T00:34:18;112497.60;;;-145.99;100.00
11515;BME280;5814;41.936;25.556;2023-03-01T00:36:45;112497.60;;;-145.99;100.00
11515;BME280;5814;41.936;25.556;2023-03-01T00:39:13;112497.60;;;-145.99;100.00
11515;BME280;5814;41.936;25.556;2023-03-01T00:41:40;112497.60;;;-145.99;100.00
11515;BME280;5814;41.936;25.556;2023-03-01T00:44:07;112497.60;;;-145.99;100.00
11515;BME280;5814;41.936;25.556;2023-03-01T00:46:34;112497.60;;;-145.99;100.00
11515;BME280;5814;41.936;25.556;2023-03-01T00:49:01;112497.60;;;-145.99;100.00
11515;BME280;5814;41.936;25.556;2023-03-01T00:51:28;112497.60;;;-145.99;100.00
11515;BME280;5814;41.936;25.556;2023-03-01T00:53:56;112497.60;;;-145.99;100.00
11515;BME280;5814;41.936;25.556;2023-03-01T00:56:23;112497.60;;;-145.99;100.00
11515;BME280;5814;41.936;25.556;2023-03-01T00:58:50;112497.60;;;-145.99;100.00
11515;BME280;5814;41.936;25.556;2023-03-01T01:01:18;112497.60;;;-145.99;100.00
11515;BME280;5814;41.936;25.556;2023-03-01T01:03:47;112497.60;;;-145.99;100.00
11515;BME280;5814;41.936;25.556;2023-03-01T01:06:16;112497.60;;;-145.99;100.00
11515;BME280;5814;41.936;25.556;2023-03-01T01:08:42;112497.60;;;-145.99;100.00
11515;BME280;5814;41.936;25.556;2023-03-01T01:11:10;112497.60;;;-145.99;100.00
11515;BME280;5814;41.936;25.556;2023-03-01T01:13:37;112497.60;;;-145.99;100.00
11515;BME280;5814;41.936;25.556;2023-03-01T01:16:05;112497.60;;;-145.99;100.00
11515;BME280;5814;41.936;25.556;2023-03-01T01:18:32;112497.60;;;-145.99;100.00
11515;BME280;5814;41.936;25.556;2023-03-01T01:21:07;112497.60;;;-145.99;100.00
11515;BME280;5814;41.936;25.556;2023-03-01T01:23:34;112497.60;;;-145.99;100.00
11515;BME280;5814;41.936;25.556;2023-03-01T01:26:07;112497.60;;;-145.99;100.00
11515;BME280;5814;41.936;25.556;2023-03-01T01:28:34;112497.60;;;-145.99;100.00
11515;BME280;5814;41.936;25.556;2023-03-01T01:31:01;112497.60;;;-145.99;100.00
11515;BME280;5814;41.936;25.556;2023-03-01T01:33:28;112497.60;;;-145.99;100.00
11515;BME280;5814;41.936;25.556;2023-03-01T01:35:55;112497.60;;;-145.99;100.00
11515;BME280;5814;41.936;25.556;2023-03-01T01:38:23;112497.60;;;-145.99;100.00
11515;BME280;5814;41.936;25.556;2023-03-01T01:40:50;99898.98;;;5.65;100.00
11515;BME280;5814;41.936;25.556;2023-03-01T01:43:22;99902.45;;;5.64;100.00
11515;BME280;5814;41.936;25.556;2023-03-01T01:45:48;99913.23;;;5.63;100.00
11515;BME280;5814;41.936;25.556;2023-03-01T01:48:18;112497.60;;;-145.99;100.00
11515;BME280;5814;41.936;25.556;2023-03-01T01:50:44;112497.60;;;-145.99;100.00
11515;BME280;5814;41.936;25.556;2023-03-01T01:53:13;112497.60;;;-145.99;100.00
11515;BME280;5814;41.936;25.556;2023-03-01T01:55:41;112497.60;;;-145.99;100.00
11515;BME280;5814;41.936;25.556;2023-03-01T01:58:08;112497.60;;;-145.99;100.00
11515;BME280;5814;41.936;25.556;2023-03-01T02:00:34;112497.60;;;-145.99;100.00
11515;BME280;5814;41.936;25.556;2023-03-01T02:03:05;112497.60;;;-145.99;100.00
11515;BME280;5814;41.936;25.556;2023-03-01T02:08:10;112497.60;;;-145.99;100.00
11515;BME280;5814;41.936;25.556;2023-03-01T02:10:36;112497.60;;;-145.99;100.00
11515;BME280;5814;41.936;25.556;2023-03-01T02:13:04;112497.60;;;-145.99;100.00
11515;BME280;5814;41.936;25.556;2023-03-01T02:15:33;112497.60;;;-145.99;100.00
11515;BME280;5814;41.936;25.556;2023-03-01T02:17:59;112497.60;;;-145.99;100.00
11515;BME280;5814;41.936;25.556;2023-03-01T02:20:51;112497.60;;;-145.99;100.00
11515;BME280;5814;41.936;25.556;2023-03-01T02:23:15;112497.60;;;-145.99;100.00
11515;BME280;5814;41.936;25.556;2023-03-01T02:26:18;112497.60;;;-145.99;100.00
11515;BME280;5814;41.936;25.556;2023-03-01T02:28:33;112497.60;;;-145.99;100.00
11515;BME280;5814;41.936;25.556;2023-03-01T02:31:00;112497.60;;;-145.99;100.00
11515;BME280;5814;41.936;25.556;2023-03-01T02:33:33;112497.60;;;-145.99;100.00
11515;BME280;5814;41.936;25.556;2023-03-01T02:36:00;112497.60;;;-145.99;100.00
11515;BME280;5814;41.936;25.556;2023-03-01T02:38:27;112497.60;;;-145.99;100.00
11515;BME280;5814;41.936;25.556;2023-03-01T02:40:54;112497.60;;;-145.99;100.00
11515;BME280;5814;41.936;25.556;2023-03-01T02:43:22;112497.60;;;-145.99;100.00
11515;BME280;5814;41.936;25.556;2023-03-01T02:45:49;112497.60;;;-145.99;100.00
11515;BME280;5814;41.936;25.556;2023-03-01T02:48:16;112497.60;;;-145.99;100.00
11515;BME280;5814;41.936;25.556;2023-03-01T02:50:52;112497.60;;;-145.99;100.00
11515;BME280;5814;41.936;25.556;2023-03-01T02:53:19;112497.60;;;-145.99;100.00
11515;BME280;5814;41.936;25.556;2023-03-01T02:55:44;112497.60;;;-145.99;100.00
11515;BME280;5814;41.936;25.556;2023-03-01T02:58:11;112497.60;;;-145.99;100.00
11515;BME280;5814;41.936;25.556;2023-03-01T03:00:40;112497.60;;;-145.99;100.00
11515;BME280;5814;41.936;25.556;2023-03-01T03:03:06;112497.60;;;-145.99;100.00
11515;BME280;5814;41.936;25.556;2023-03-01T03:05:33;112497.60;;;-145.99;100.00
11515;BME280;5814;41.936;25.556;2023-03-01T03:08:01;112497.60;;;-145.99;100.00
11515;BME280;5814;41.936;25.556;2023-03-01T03:10:30;112497.60;;;-145.99;100.00
11515;BME280;5814;41.936;25.556;2023-03-01T03:13:02;112497.60;;;-145.99;100.00
11515;BME280;5814;41.936;25.556;2023-03-01T03:15:27;99875.75;;;5.79;100.00
11515;BME280;5814;41.936;25.556;2023-03-01T03:17:55;99879.68;;;5.89;100.00
11515;BME280;5814;41.936;25.556;2023-03-01T03:20:23;99879.20;;;5.79;100.00
11515;BME280;5814;41.936;25.556;2023-03-01T03:22:50;99874.95;;;5.87;100.00
11515;BME280;5814;41.936;25.556;2023-03-01T03:25:17;99859.34;;;5.73;100.00
11515;BME280;5814;41.936;25.556;2023-03-01T03:27:45;99862.36;;;5.74;100.00
11515;BME280;5814;41.936;25.556;2023-03-01T03:30:13;99860.59;;;5.60;100.00
11515;BME280;5814;41.936;25.556;2023-03-01T03:32:39;99851.48;;;5.55;100.00
11515;BME280;5814;41.936;25.556;2023-03-01T03:35:08;99857.53;;;5.55;100.00
11515;BME280;5814;41.936;25.556;2023-03-01T03:37:36;99857.12;;;5.56;100.00
11515;BME280;5814;41.936;25.556;2023-03-01T03:40:09;99857.97;;;5.53;100.00
11515;BME280;5814;41.936;25.556;2023-03-01T03:45:16;99867.51;;;5.67;100.00
11515;BME280;5814;41.936;25.556;2023-03-01T03:47:43;99858.45;;;5.63;100.00
11515;BME280;5814;41.936;25.556;2023-03-01T03:50:11;99853.71;;;5.65;100.00
11515;BME280;5814;41.936;25.556;2023-03-01T03:52:38;99858.42;;;5.59;100.00
11515;BME280;5814;41.936;25.556;2023-03-01T03:55:06;99850.63;;;5.58;100.00
11515;BME280;5814;41.936;25.556;2023-03-01T03:57:35;99854.53;;;5.60;100.00
11515;BME280;5814;41.936;25.556;2023-03-01T04:02:41;99852.91;;;5.83;100.00
11515;BME280;5814;41.936;25.556;2023-03-01T04:05:09;99850.27;;;5.74;100.00
11515;BME280;5814;41.936;25.556;2023-03-01T04:07:36;112497.60;;;-145.99;100.00
11515;BME280;5814;41.936;25.556;2023-03-01T04:10:04;112497.60;;;-145.99;100.00
11515;BME280;5814;41.936;25.556;2023-03-01T04:12:31;112497.60;;;-145.99;100.00
11515;BME280;5814;41.936;25.556;2023-03-01T04:14:58;112497.60;;;-145.99;100.00
11515;BME280;5814;41.936;25.556;2023-03-01T04:17:25;112497.60;;;-145.99;100.00
11515;BME280;5814;41.936;25.556;2023-03-01T04:19:52;112497.60;;;-145.99;100.00
11515;BME280;5814;41.936;25.556;2023-03-01T04:22:20;112497.60;;;-145.99;100.00
11515;BME280;5814;41.936;25.556;2023-03-01T04:24:47;112497.60;;;-145.99;100.00
11515;BME280;5814;41.936;25.556;2023-03-01T04:27:14;112497.60;;;-145.99;100.00
11515;BME280;5814;41.936;25.556;2023-03-01T04:29:41;112497.60;;;-145.99;100.00
11515;BME280;5814;41.936;25.556;2023-03-01T04:32:08;112497.60;;;-145.99;100.00
11515;BME280;5814;41.936;25.556;2023-03-01T04:34:35;112497.60;;;-145.99;100.00
11515;BME280;5814;41.936;25.556;2023-03-01T04:37:03;112497.60;;;-145.99;100.00
11515;BME280;5814;41.936;25.556;2023-03-01T04:39:30;112497.60;;;-145.99;100.00
11515;BME280;5814;41.936;25.556;2023-03-01T04:41:57;112497.60;;;-145.99;100.00
11515;BME280;5814;41.936;25.556;2023-03-01T04:44:25;112497.60;;;-145.99;100.00
11515;BME280;5814;41.936;25.556;2023-03-01T04:46:51;112497.60;;;-145.99;100.00
11515;BME280;5814;41.936;25.556;2023-03-01T04:49:19;112497.60;;;-145.99;100.00
11515;BME280;5814;41.936;25.556;2023-03-01T04:51:46;112497.60;;;-145.99;100.00
11515;BME280;5814;41.936;25.556;2023-03-01T04:54:13;112497.60;;;-145.99;100.00
11515;BME280;5814;41.936;25.556;2023-03-01T04:56:40;112497.60;;;-145.99;100.00
11515;BME280;5814;41.936;25.556;2023-03-01T04:59:07;112497.60;;;-145.99;100.00
11515;BME280;5814;41.936;25.556;2023-03-01T05:01:35;112497.60;;;-145.99;100.00
11515;BME280;5814;41.936;25.556;2023-03-01T05:04:02;112497.60;;;-145.99;100.00
11515;BME280;5814;41.936;25.556;2023-03-01T05:06:29;112497.60;;;-145.99;100.00
11515;BME280;5814;41.936;25.556;2023-03-01T05:08:56;112497.60;;;-145.99;100.00
11515;BME280;5814;41.936;25.556;2023-03-01T05:11:23;112497.60;;;-145.99;100.00
11515;BME280;5814;41.936;25.556;2023-03-01T05:13:50;112497.60;;;-145.99;100.00
11515;BME280;5814;41.936;25.556;2023-03-01T05:16:18;112497.60;;;-145.99;100.00
11515;BME280;5814;41.936;25.556;2023-03-01T05:18:45;112497.60;;;-145.99;100.00
11515;BME280;5814;41.936;25.556;2023-03-01T05:21:13;112497.60;;;-145.99;100.00
11515;BME280;5814;41.936;25.556;2023-03-01T05:23:39;112497.60;;;-145.99;100.00
11515;BME280;5814;41.936;25.556;2023-03-01T05:26:06;112497.60;;;-145.99;100.00
11515;BME280;5814;41.936;25.556;2023-03-01T05:28:34;112497.60;;;-145.99;100.00
11515;BME280;5814;41.936;25.556;2023-03-01T05:31:01;99864.02;;;5.53;100.00
11515;BME280;5814;41.936;25.556;2023-03-01T05:33:28;99861.00;;;5.60;100.00
11515;BME280;5814;41.936;25.556;2023-03-01T05:35:59;99864.91;;;5.61;100.00
11515;BME280;5814;41.936;25.556;2023-03-01T05:38:22;99866.99;;;5.50;100.00
11515;BME280;5814;41.936;25.556;2023-03-01T05:40:49;99875.64;;;5.55;100.00
11515;BME280;5814;41.936;25.556;2023-03-01T05:43:16;99869.63;;;5.57;100.00
11515;BME280;5814;41.936;25.556;2023-03-01T05:45:44;99877.92;;;5.78;100.00
11515;BME280;5814;41.936;25.556;2023-03-01T05:48:11;99879.25;;;5.82;100.00
11515;BME280;5814;41.936;25.556;2023-03-01T05:50:40;99863.27;;;5.80;100.00
11515;BME280;5814;41.936;25.556;2023-03-01T05:53:09;99874.05;;;5.81;100.00
11515;BME280;5814;41.936;25.556;2023-03-01T05:55:34;99871.91;;;5.86;100.00
11515;BME280;5814;41.936;25.556;2023-03-01T05:58:02;99869.75;;;5.86;100.00
11515;BME280;5814;41.936;25.556;2023-03-01T06:00:29;99869.27;;;5.73;100.00
11515;BME280;5814;41.936;25.556;2023-03-01T06:02:56;99875.77;;;5.78;100.00
11515;BME280;5814;41.936;25.556;2023-03-01T06:05:22;99883.44;;;5.62;100.00
11515;BME280;5814;41.936;25.556;2023-03-01T06:07:50;99874.38;;;5.56;100.00
11515;BME280;5814;41.936;25.556;2023-03-01T06:10:17;99884.69;;;5.52;100.00
11515;BME280;5814;41.936;25.556;2023-03-01T06:12:44;99878.20;;;5.48;100.00
11515;BME280;5814;41.936;25.556;2023-03-01T06:15:12;99894.19;;;5.51;100.00
11515;BME280;5814;41.936;25.556;2023-03-01T06:17:39;99882.54;;;5.52;100.00
11515;BME280;5814;41.936;25.556;2023-03-01T06:20:08;99886.86;;;5.55;100.00
11515;BME280;5814;41.936;25.556;2023-03-01T06:22:33;99875.25;;;5.61;100.00
11515;BME280;5814;41.936;25.556;2023-03-01T06:25:01;99892.92;;;5.60;100.00
11515;BME280;5814;41.936;25.556;2023-03-01T06:27:28;99891.69;;;5.69;100.00
11515;BME280;5814;41.936;25.556;2023-03-01T06:29:55;99893.45;;;5.76;100.00
11515;BME280;5814;41.936;25.556;2023-03-01T06:32:22;99890.83;;;5.71;100.00
11515;BME280;5814;41.936;25.556;2023-03-01T06:34:49;99895.16;;;5.73;100.00
11515;BME280;5814;41.936;25.556;2023-03-01T06:37:16;99889.14;;;5.79;100.00
11515;BME280;5814;41.936;25.556;2023-03-01T06:39:44;99876.14;;;5.70;100.00
11515;BME280;5814;41.936;25.556;2023-03-01T06:42:11;99886.92;;;5.67;100.00
11515;BME280;5814;41.936;25.556;2023-03-01T06:44:38;99893.05;;;5.83;100.00
11515;BME280;5814;41.936;25.556;2023-03-01T06:47:05;99890.48;;;5.90;100.00
11515;BME280;5814;41.936;25.556;2023-03-01T06:49:32;99880.49;;;5.73;100.00
11515;BME280;5814;41.936;25.556;2023-03-01T06:51:59;99898.16;;;5.68;100.00
11515;BME280;5814;41.936;25.556;2023-03-01T06:54:27;99895.20;;;5.80;100.00
11515;BME280;5814;41.936;25.556;2023-03-01T06:56:54;99895.98;;;5.67;100.00
11515;BME280;5814;41.936;25.556;2023-03-01T06:59:21;99908.52;;;5.68;100.00
11515;BME280;5814;41.936;25.556;2023-03-01T07:01:48;99900.77;;;5.74;100.00
11515;BME280;5814;41.936;25.556;2023-03-01T07:04:15;99908.13;;;5.79;100.00
11515;BME280;5814;41.936;25.556;2023-03-01T07:06:42;99901.22;;;5.79;100.00
11515;BME280;5814;41.936;25.556;2023-03-01T07:09:10;99893.92;;;5.85;100.00
11515;BME280;5814;41.936;25.556;2023-03-01T07:11:37;99903.38;;;5.75;100.00
11515;BME280;5814;41.936;25.556;2023-03-01T07:14:04;99899.44;;;5.67;100.00
11515;BME280;5814;41.936;25.556;2023-03-01T07:16:31;99906.39;;;5.76;100.00
11515;BME280;5814;41.936;25.556;2023-03-01T07:18:58;99889.56;;;5.76;100.00
11515;BME280;5814;41.936;25.556;2023-03-01T07:21:25;99899.53;;;5.89;100.00
11515;BME280;5814;41.936;25.556;2023-03-01T07:23:53;99900.86;;;5.92;100.00
11515;BME280;5814;41.936;25.556;2023-03-01T07:26:20;99892.72;;;5.96;100.00
11515;BME280;5814;41.936;25.556;2023-03-01T07:28:47;99890.59;;;6.09;100.00
11515;BME280;5814;41.936;25.556;2023-03-01T07:31:14;99903.42;;;5.88;100.00
11515;BME280;5814;41.936;25.556;2023-03-01T07:33:41;99886.94;;;5.69;100.00
11515;BME280;5814;41.936;25.556;2023-03-01T07:36:08;99886.57;;;5.80;100.00
11515;BME280;5814;41.936;25.556;2023-03-01T07:38:36;99891.75;;;5.86;100.00
11515;BME280;5814;41.936;25.556;2023-03-01T07:41:03;99882.69;;;5.83;100.00
11515;BME280;5814;41.936;25.556;2023-03-01T07:43:30;99873.58;;;5.70;100.00
11515;BME280;5814;41.936;25.556;2023-03-01T07:45:59;99867.99;;;5.79;100.00
11515;BME280;5814;41.936;25.556;2023-03-01T07:48:25;99877.52;;;5.85;100.00
11515;BME280;5814;41.936;25.556;2023-03-01T07:50:52;99883.62;;;5.95;100.00
11515;BME280;5814;41.936;25.556;2023-03-01T07:53:19;99877.08;;;5.86;100.00
11515;BME280;5814;41.936;25.556;2023-03-01T07:55:47;99875.40;;;5.91;100.00
11515;BME280;5814;41.936;25.556;2023-03-01T07:58:14;99871.14;;;6.02;100.00
11515;BME280;5814;41.936;25.556;2023-03-01T08:00:41;99876.34;;;6.06;100.00
11515;BME280;5814;41.936;25.556;2023-03-01T08:03:08;99854.22;;;5.95;100.00
11515;BME280;5814;41.936;25.556;2023-03-01T08:05:35;99877.19;;;5.99;100.00
11515;BME280;5814;41.936;25.556;2023-03-01T08:08:03;99880.63;;;6.03;100.00
11515;BME280;5814;41.936;25.556;2023-03-01T08:10:30;99884.95;;;5.99;100.00
11515;BME280;5814;41.936;25.556;2023-03-01T08:12:57;99879.74;;;5.95;100.00
11515;BME280;5814;41.936;25.556;2023-03-01T08:15:24;99879.68;;;5.89;100.00
11515;BME280;5814;41.936;25.556;2023-03-01T08:17:51;99853.78;;;5.82;100.00
11515;BME280;5814;41.936;25.556;2023-03-01T08:20:18;99874.58;;;5.98;100.00
11515;BME280;5814;41.936;25.556;2023-03-01T08:22:45;99870.28;;;6.07;100.00
11515;BME280;5814;41.936;25.556;2023-03-01T08:25:13;99872.05;;;6.13;100.00
11515;BME280;5814;41.936;25.556;2023-03-01T08:27:40;99871.17;;;6.11;100.00
11515;BME280;5814;41.936;25.556;2023-03-01T08:30:08;99873.34;;;6.20;100.00
11515;BME280;5814;41.936;25.556;2023-03-01T08:32:36;99868.22;;;6.35;100.00
11515;BME280;5814;41.936;25.556;2023-03-01T08:35:03;99876.84;;;6.27;100.00
11515;BME280;5814;41.936;25.556;2023-03-01T08:37:30;99869.88;;;6.20;100.00
11515;BME280;5814;41.936;25.556;2023-03-01T08:39:57;99875.03;;;6.02;100.00
11515;BME280;5814;41.936;25.556;2023-03-01T08:42:24;99841.67;;;5.78;100.00
11515;BME280;5814;41.936;25.556;2023-03-01T08:44:51;99874.61;;;6.04;100.00
11515;BME280;5814;41.936;25.556;2023-03-01T08:47:19;99874.62;;;6.06;100.00
11515;BME280;5814;41.936;25.556;2023-03-01T08:49:46;99875.08;;;6.16;100.00
11515;BME280;5814;41.936;25.556;2023-03-01T08:52:13;99863.84;;;6.17;100.00
11515;BME280;5814;41.936;25.556;2023-03-01T08:54:40;99872.52;;;6.39;100.00
11515;BME280;5814;41.936;25.556;2023-03-01T08:57:07;99879.33;;;5.97;100.00
11515;BME280;5814;41.936;25.556;2023-03-01T08:59:35;99868.11;;;6.03;100.00
11515;BME280;5814;41.936;25.556;2023-03-01T09:02:03;99864.27;;;6.12;100.00
11515;BME280;5814;41.936;25.556;2023-03-01T09:04:30;99867.72;;;6.17;100.00
11515;BME280;5814;41.936;25.556;2023-03-01T09:06:57;99863.84;;;6.16;100.00
11515;BME280;5814;41.936;25.556;2023-03-01T09:09:24;99846.45;;;5.84;100.00
11515;BME280;5814;41.936;25.556;2023-03-01T09:11:51;99876.25;;;5.90;100.00
11515;BME280;5814;41.936;25.556;2023-03-01T09:14:18;99874.52;;;5.87;100.00
11515;BME280;5814;41.936;25.556;2023-03-01T09:16:46;99870.27;;;5.97;100.00
11515;BME280;5814;41.936;25.556;2023-03-01T09:19:13;99866.73;;;5.89;100.00
11515;BME280;5814;41.936;25.556;2023-03-01T09:21:40;99872.77;;;5.85;100.00
11515;BME280;5814;41.936;25.556;2023-03-01T09:24:12;99887.89;;;5.87;100.00
11515;BME280;5814;41.936;25.556;2023-03-01T09:26:38;99882.70;;;5.86;100.00
11515;BME280;5814;41.936;25.556;2023-03-01T09:29:05;99884.47;;;5.91;100.00
11515;BME280;5814;41.936;25.556;2023-03-01T09:31:33;99885.71;;;5.83;100.00
11515;BME280;5814;41.936;25.556;2023-03-01T09:34:00;112497.60;;;-145.99;100.00
11515;BME280;5814;41.936;25.556;2023-03-01T09:36:27;112497.60;;;-145.99;100.00
11515;BME280;5814;41.936;25.556;2023-03-01T09:38:54;112497.60;;;-145.99;100.00
11515;BME280;5814;41.936;25.556;2023-03-01T09:41:33;99885.39;;;6.05;100.00
11515;BME280;5814;41.936;25.556;2023-03-01T09:44:02;99891.85;;;5.96;100.00
11515;BME280;5814;41.936;25.556;2023-03-01T09:46:27;112497.60;;;-145.99;100.00
11515;BME280;5814;41.936;25.556;2023-03-01T09:48:56;99880.98;;;5.87;100.00
11515;BME280;5814;41.936;25.556;2023-03-01T09:51:30;99873.66;;;5.90;100.00
11515;BME280;5814;41.936;25.556;2023-03-01T09:53:56;99878.36;;;5.82;100.00
11515;BME280;5814;41.936;25.556;2023-03-01T09:56:32;99884.84;;;5.77;100.00
11515;BME280;5814;41.936;25.556;2023-03-01T09:59:23;99875.79;;;5.82;100.00
11515;BME280;5814;41.936;25.556;2023-03-01T10:01:54;99874.59;;;6.02;100.00
11515;BME280;5814;41.936;25.556;2023-03-01T10:04:27;99872.86;;;5.97;100.00
11515;BME280;5814;41.936;25.556;2023-03-01T10:07:00;99868.91;;;5.87;100.00
11515;BME280;5814;41.936;25.556;2023-03-01T10:09:25;99863.30;;;5.90;100.00
11515;BME280;5814;41.936;25.556;2023-03-01T10:11:53;99858.17;;;5.94;100.00
11515;BME280;5814;41.936;25.556;2023-03-01T10:14:32;99858.52;;;5.83;100.00
11515;BME280;5814;41.936;25.556;2023-03-01T10:17:06;99856.34;;;5.79;100.00
11515;BME280;5814;41.936;25.556;2023-03-01T10:19:37;99858.07;;;5.78;100.00
11515;BME280;5814;41.936;25.556;2023-03-01T10:22:19;99855.09;;;5.87;100.00
11515;BME280;5814;41.936;25.556;2023-03-01T10:24:45;99852.90;;;5.77;100.00
11515;BME280;5814;41.936;25.556;2023-03-01T10:27:25;99856.36;;;5.83;100.00
11515;BME280;5814;41.936;25.556;2023-03-01T10:29:59;99852.52;;;5.92;100.00
11515;BME280;5814;41.936;25.556;2023-03-01T10:32:23;99850.42;;;5.99;100.00
11515;BME280;5814;41.936;25.556;2023-03-01T10:34:50;99858.19;;;6.02;100.00
11515;BME280;5814;41.936;25.556;2023-03-01T10:37:18;99856.46;;;5.99;100.00
11515;BME280;5814;41.936;25.556;2023-03-01T10:39:58;99856.46;;;6.02;100.00
11515;BME280;5814;41.936;25.556;2023-03-01T10:42:27;99830.91;;;5.91;100.00
11515;BME280;5814;41.936;25.556;2023-03-01T10:44:53;99854.33;;;6.12;100.00
11515;BME280;5814;41.936;25.556;2023-03-01T10:47:24;99855.11;;;5.92;100.00
11515;BME280;5814;41.936;25.556;2023-03-01T10:49:56;99836.58;;;5.98;100.00
11515;BME280;5814;41.936;25.556;2023-03-01T10:52:24;99846.89;;;5.94;100.00
11515;BME280;5814;41.936;25.556;2023-03-01T10:54:57;99845.67;;;6.02;100.00
11515;BME280;5814;41.936;25.556;2023-03-01T10:57:29;99843.10;;;6.06;100.00
11515;BME280;5814;41.936;25.556;2023-03-01T11:00:10;99838.80;;;6.19;100.00
11515;BME280;5814;41.936;25.556;2023-03-01T11:02:29;99838.77;;;6.13;100.00
11515;BME280;5814;41.936;25.556;2023-03-01T11:05:00;99833.62;;;6.13;100.00
11515;BME280;5814;41.936;25.556;2023-03-01T11:07:26;99834.02;;;6.05;100.00
11515;BME280;5814;41.936;25.556;2023-03-01T11:09:53;99829.31;;;6.26;100.00
11515;BME280;5814;41.936;25.556;2023-03-01T11:12:20;99822.39;;;6.24;100.00
11515;BME280;5814;41.936;25.556;2023-03-01T11:14:50;99823.27;;;6.23;100.00
11515;BME280;5814;41.936;25.556;2023-03-01T11:17:18;99810.33;;;6.25;100.00
11515;BME280;5814;41.936;25.556;2023-03-01T11:19:52;99816.34;;;6.16;100.00
11515;BME280;5814;41.936;25.556;2023-03-01T11:22:13;99811.61;;;6.18;100.00
11515;BME280;5814;41.936;25.556;2023-03-01T11:24:40;99806.84;;;6.24;100.00
11515;BME280;5814;41.936;25.556;2023-03-01T11:27:12;99790.39;;;5.98;100.00
11515;BME280;5814;41.936;25.556;2023-03-01T11:29:39;99801.66;;;6.17;100.00
11515;BME280;5814;41.936;25.556;2023-03-01T11:32:06;99798.64;;;6.13;100.00
11515;BME280;5814;41.936;25.556;2023-03-01T11:34:59;99793.01;;;6.12;100.00
11515;BME280;5814;41.936;25.556;2023-03-01T11:37:34;99783.52;;;6.12;100.00
11515;BME280;5814;41.936;25.556;2023-03-01T11:40:12;99783.97;;;6.21;100.00
11515;BME280;5814;41.936;25.556;2023-03-01T11:45:12;99783.96;;;6.16;100.00
11515;BME280;5814;41.936;25.556;2023-03-01T11:47:42;99772.75;;;6.26;100.00
11515;BME280;5814;41.936;25.556;2023-03-01T11:50:30;99769.30;;;6.25;100.00
11515;BME280;5814;41.936;25.556;2023-03-01T11:53:00;99771.84;;;6.15;100.00
11515;BME280;5814;41.936;25.556;2023-03-01T11:55:29;99774.45;;;6.17;100.00
11515;BME280;5814;41.936;25.556;2023-03-01T11:58:14;99769.72;;;6.31;100.00
11515;BME280;5814;41.936;25.556;2023-03-01T12:01:08;99763.25;;;6.25;100.00
11515;BME280;5814;41.936;25.556;2023-03-01T12:03:42;99764.55;;;6.32;100.00
11515;BME280;5814;41.936;25.556;2023-03-01T12:06:24;99762.80;;;6.34;100.00
11515;BME280;5814;41.936;25.556;2023-03-01T12:08:54;99746.81;;;6.29;100.00
11515;BME280;5814;41.936;25.556;2023-03-01T12:14:48;112497.60;;;-145.99;100.00
11515;BME280;5814;41.936;25.556;2023-03-01T12:17:02;112497.60;;;-145.99;100.00
11515;BME280;5814;41.936;25.556;2023-03-01T12:19:29;99752.44;;;6.26;100.00
11515;BME280;5814;41.936;25.556;2023-03-01T12:22:00;99754.61;;;6.26;100.00
11515;BME280;5814;41.936;25.556;2023-03-01T12:27:16;99764.55;;;6.30;100.00
11515;BME280;5814;41.936;25.556;2023-03-01T12:29:45;99765.83;;;6.43;100.00
11515;BME280;5814;41.936;25.556;2023-03-01T12:32:20;99773.16;;;6.24;100.00
11515;BME280;5814;41.936;25.556;2023-03-01T12:34:55;99772.75;;;6.40;100.00
11515;BME280;5814;41.936;25.556;2023-03-01T12:37:21;99771.02;;;6.23;100.00
11515;BME280;5814;41.936;25.556;2023-03-01T12:40:09;99766.26;;;6.41;100.00
11515;BME280;5814;41.936;25.556;2023-03-01T12:42:37;99766.27;;;6.33;100.00
11515;BME280;5814;41.936;25.556;2023-03-01T12:45:16;99765.41;;;6.23;100.00
11515;BME280;5814;41.936;25.556;2023-03-01T12:47:55;99758.93;;;6.23;100.00
11515;BME280;5814;41.936;25.556;2023-03-01T12:50:24;99748.97;;;6.22;100.00
11515;BME280;5814;41.936;25.556;2023-03-01T12:52:51;99760.22;;;6.31;100.00
11515;BME280;5814;41.936;25.556;2023-03-01T12:58:21;99755.02;;;6.34;100.00
11515;BME280;5814;41.936;25.556;2023-03-01T13:01:04;99746.41;;;6.23;100.00
11515;BME280;5814;41.936;25.556;2023-03-01T13:03:52;99759.78;;;6.29;100.00
11515;BME280;5814;41.936;25.556;2023-03-01T13:06:22;99752.02;;;6.23;100.00
11515;BME280;5814;41.936;25.556;2023-03-01T13:08:58;99739.47;;;6.17;100.00
11515;BME280;5814;41.936;25.556;2023-03-01T13:11:24;99731.30;;;6.25;100.00
11515;BME280;5814;41.936;25.556;2023-03-01T13:13:52;99733.44;;;6.28;100.00